sensor_id;sensor_type;location;lat;lon;timestamp;pressure;altitude;pressure_sealevel;temperature;humidity
46111;BME280;31849;55.992;37.252;2022-11-23T00:00:26;98085.09;;;2.17;69.21
46111;BME280;31849;55.992;37.252;2022-11-23T00:05:30;98094.53;;;2.21;69.30
46111;BME280;31849;55.992;37.252;2022-11-23T00:10:34;98091.06;;;2.16;68.90
46111;BME280;31849;55.992;37.252;2022-11-23T00:15:39;98090.97;;;2.04;69.76
46111;BME280;31849;55.992;37.252;2022-11-23T00:20:44;98084.00;;;1.92;69.96
46111;BME280;31849;55.992;37.252;2022-11-23T00:25:47;98096.91;;;2.03;69.35
46111;BME280;31849;55.992;37.252;2022-11-23T00:30:50;98098.47;;;1.87;69.96
46111;BME280;31849;55.992;37.252;2022-11-23T00:36:03;98090.75;;;1.84;70.45
46111;BME280;31849;55.992;37.252;2022-11-23T00:41:09;98093.38;;;1.90;70.56
46111;BME280;31849;55.992;37.252;2022-11-23T00:46:14;98085.69;;;1.90;70.48
46111;BME280;31849;55.992;37.252;2022-11-23T00:51:21;98092.63;;;2.03;69.92
46111;BME280;31849;55.992;37.252;2022-11-23T00:56:25;98081.34;;;1.83;70.71
46111;BME280;31849;55.992;37.252;2022-11-23T01:01:30;98073.72;;;1.87;70.88
46111;BME280;31849;55.992;37.252;2022-11-23T01:06:38;98079.69;;;1.89;70.46
46111;BME280;31849;55.992;37.252;2022-11-23T01:11:41;98080.38;;;1.73;70.71
46111;BME280;31849;55.992;37.252;2022-11-23T01:16:45;98072.78;;;1.82;70.39
46111;BME280;31849;55.992;37.252;2022-11-23T01:21:50;98080.50;;;1.85;70.91
46111;BME280;31849;55.992;37.252;2022-11-23T01:26:54;98085.84;;;2.05;70.49
46111;BME280;31849;55.992;37.252;2022-11-23T01:31:57;98084.06;;;1.97;70.05
46111;BME280;31849;55.992;37.252;2022-11-23T01:37:02;98086.59;;;1.95;70.64
46111;BME280;31849;55.992;37.252;2022-11-23T01:42:05;98089.06;;;1.83;70.75
46111;BME280;31849;55.992;37.252;2022-11-23T01:47:09;98099.47;;;2.03;70.03
46111;BME280;31849;55.992;37.252;2022-11-23T01:52:17;98084.09;;;2.01;70.54
46111;BME280;31849;55.992;37.252;2022-11-23T01:57:24;98084.81;;;1.86;70.88
46111;BME280;31849;55.992;37.252;2022-11-23T02:02:30;98081.53;;;2.03;70.04
46111;BME280;31849;55.992;37.252;2022-11-23T02:07:36;98083.19;;;1.93;70.45
46111;BME280;31849;55.992;37.252;2022-11-23T02:12:40;98089.97;;;1.92;70.67
46111;BME280;31849;55.992;37.252;2022-11-23T02:17:44;98087.50;;;2.03;69.81
46111;BME280;31849;55.992;37.252;2022-11-23T02:22:58;98084.16;;;2.09;70.40
46111;BME280;31849;55.992;37.252;2022-11-23T02:28:07;98093.47;;;1.99;70.56
46111;BME280;31849;55.992;37.252;2022-11-23T02:33:11;98097.72;;;1.97;70.47
46111;BME280;31849;55.992;37.252;2022-11-23T02:38:15;98101.13;;;1.95;70.78
46111;BME280;31849;55.992;37.252;2022-11-23T02:43:20;98100.41;;;2.08;70.40
46111;BME280;31849;55.992;37.252;2022-11-23T02:48:24;98096.19;;;2.16;70.51
46111;BME280;31849;55.992;37.252;2022-11-23T02:53:28;98082.34;;;1.99;70.00
46111;BME280;31849;55.992;37.252;2022-11-23T02:58:32;98096.13;;;2.10;70.27
46111;BME280;31849;55.992;37.252;2022-11-23T03:03:35;98090.13;;;2.06;70.15
46111;BME280;31849;55.992;37.252;2022-11-23T03:08:39;98090.94;;;2.01;70.61
46111;BME280;31849;55.992;37.252;2022-11-23T03:13:43;98087.38;;;1.89;70.60
46111;BME280;31849;55.992;37.252;2022-11-23T03:18:46;98084.84;;;1.91;70.44
46111;BME280;31849;55.992;37.252;2022-11-23T03:23:50;98084.03;;;1.95;70.36
46111;BME280;31849;55.992;37.252;2022-11-23T03:28:55;98088.38;;;2.01;70.21
46111;BME280;31849;55.992;37.252;2022-11-23T03:33:58;98092.44;;;1.82;71.14
46111;BME280;31849;55.992;37.252;2022-11-23T03:39:01;98100.97;;;1.82;71.01
46111;BME280;31849;55.992;37.252;2022-11-23T03:44:06;98118.16;;;1.91;70.90
46111;BME280;31849;55.992;37.252;2022-11-23T03:49:09;98118.19;;;1.94;70.25
46111;BME280;31849;55.992;37.252;2022-11-23T03:54:13;98100.97;;;1.82;70.85
46111;BME280;31849;55.992;37.252;2022-11-23T03:59:18;98105.28;;;1.83;71.14
46111;BME280;31849;55.992;37.252;2022-11-23T04:04:21;98105.25;;;1.82;70.73
46111;BME280;31849;55.992;37.252;2022-11-23T04:09:24;98114.75;;;1.92;70.48
46111;BME280;31849;55.992;37.252;2022-11-23T04:14:29;98109.81;;;2.12;70.33
46111;BME280;31849;55.992;37.252;2022-11-23T04:19:32;98107.94;;;1.94;70.44
46111;BME280;31849;55.992;37.252;2022-11-23T04:24:36;98104.56;;;1.97;70.64
46111;BME280;31849;55.992;37.252;2022-11-23T04:29:40;98113.16;;;2.03;70.28
46111;BME280;31849;55.992;37.252;2022-11-23T04:34:44;98115.69;;;1.99;69.98
46111;BME280;31849;55.992;37.252;2022-11-23T04:39:47;98117.41;;;2.00;70.56
46111;BME280;31849;55.992;37.252;2022-11-23T04:44:52;98121.78;;;2.10;70.61
46111;BME280;31849;55.992;37.252;2022-11-23T04:49:55;98122.66;;;2.12;70.13
46111;BME280;31849;55.992;37.252;2022-11-23T04:54:59;98123.53;;;2.13;70.45
46111;BME280;31849;55.992;37.252;2022-11-23T05:00:06;98130.38;;;2.18;70.27
46111;BME280;31849;55.992;37.252;2022-11-23T05:05:10;98115.06;;;2.21;69.68
46111;BME280;31849;55.992;37.252;2022-11-23T05:10:13;98121.00;;;2.19;70.41
46111;BME280;31849;55.992;37.252;2022-11-23T05:15:18;98121.03;;;2.22;70.39
46111;BME280;31849;55.992;37.252;2022-11-23T05:20:21;98131.28;;;2.20;70.41
46111;BME280;31849;55.992;37.252;2022-11-23T05:25:25;98126.13;;;2.17;70.37
46111;BME280;31849;55.992;37.252;2022-11-23T05:30:30;98126.09;;;2.14;70.78
46111;BME280;31849;55.992;37.252;2022-11-23T05:35:33;98130.72;;;2.57;70.15
46111;BME280;31849;55.992;37.252;2022-11-23T05:40:36;98144.75;;;3.02;69.89
46111;BME280;31849;55.992;37.252;2022-11-23T05:45:41;98145.19;;;5.46;70.35
46111;BME280;31849;55.992;37.252;2022-11-23T05:50:44;98138.00;;;7.26;65.52
46111;BME280;31849;55.992;37.252;2022-11-23T05:55:47;98139.72;;;6.22;63.60
46111;BME280;31849;55.992;37.252;2022-11-23T06:00:56;98144.38;;;5.35;62.19
46111;BME280;31849;55.992;37.252;2022-11-23T06:05:59;98155.59;;;5.15;63.77
46111;BME280;31849;55.992;37.252;2022-11-23T06:11:03;98153.03;;;4.75;64.31
46111;BME280;31849;55.992;37.252;2022-11-23T06:16:08;98149.59;;;4.81;63.42
46111;BME280;31849;55.992;37.252;2022-11-23T06:21:11;98143.59;;;4.52;62.40
46111;BME280;31849;55.992;37.252;2022-11-23T06:26:14;98137.53;;;4.10;63.16
46111;BME280;31849;55.992;37.252;2022-11-23T06:31:19;98143.38;;;3.63;63.78
46111;BME280;31849;55.992;37.252;2022-11-23T06:36:22;98148.41;;;3.41;64.16
46111;BME280;31849;55.992;37.252;2022-11-23T06:41:25;98150.09;;;3.34;64.43
46111;BME280;31849;55.992;37.252;2022-11-23T06:46:34;98143.88;;;2.97;65.82
46111;BME280;31849;55.992;37.252;2022-11-23T06:51:38;98142.97;;;2.90;65.95
46111;BME280;31849;55.992;37.252;2022-11-23T06:56:41;98153.25;;;2.90;65.96
46111;BME280;31849;55.992;37.252;2022-11-23T07:01:46;98159.16;;;2.78;66.23
46111;BME280;31849;55.992;37.252;2022-11-23T07:06:50;98163.41;;;2.75;66.47
46111;BME280;31849;55.992;37.252;2022-11-23T07:11:53;98157.38;;;2.71;66.80
46111;BME280;31849;55.992;37.252;2022-11-23T07:16:58;98170.19;;;2.70;67.30
46111;BME280;31849;55.992;37.252;2022-11-23T07:22:01;98166.56;;;2.44;67.57
46111;BME280;31849;55.992;37.252;2022-11-23T07:27:05;98173.44;;;2.47;67.75
46111;BME280;31849;55.992;37.252;2022-11-23T07:32:10;98182.09;;;2.58;67.54
46111;BME280;31849;55.992;37.252;2022-11-23T07:37:15;98184.53;;;2.46;67.97
46111;BME280;31849;55.992;37.252;2022-11-23T07:42:18;98182.88;;;2.51;67.51
46111;BME280;31849;55.992;37.252;2022-11-23T07:47:38;98193.94;;;2.44;68.33
46111;BME280;31849;55.992;37.252;2022-11-23T07:52:41;98191.34;;;2.41;68.27
46111;BME280;31849;55.992;37.252;2022-11-23T07:57:45;98186.25;;;2.47;68.28
46111;BME280;31849;55.992;37.252;2022-11-23T08:02:49;98184.53;;;2.46;68.72
46111;BME280;31849;55.992;37.252;2022-11-23T08:08:13;98183.78;;;2.59;67.86
46111;BME280;31849;55.992;37.252;2022-11-23T08:13:16;98195.53;;;2.34;68.82
46111;BME280;31849;55.992;37.252;2022-11-23T08:18:21;98188.06;;;2.59;68.72
46111;BME280;31849;55.992;37.252;2022-11-23T08:23:24;98185.63;;;2.74;67.76
46111;BME280;31849;55.992;37.252;2022-11-23T08:28:28;98186.59;;;2.86;67.38
46111;BME280;31849;55.992;37.252;2022-11-23T08:33:32;98178.69;;;2.64;68.59
46111;BME280;31849;55.992;37.252;2022-11-23T08:38:36;98186.44;;;2.69;68.29
46111;BME280;31849;55.992;37.252;2022-11-23T08:43:39;98191.63;;;2.72;68.53
46111;BME280;31849;55.992;37.252;2022-11-23T08:48:44;98189.94;;;2.78;67.84
46111;BME280;31849;55.992;37.252;2022-11-23T08:53:48;98178.78;;;2.72;67.90
46111;BME280;31849;55.992;37.252;2022-11-23T08:58:51;98199.16;;;2.55;67.84
46111;BME280;31849;55.992;37.252;2022-11-23T09:03:56;98194.09;;;2.66;68.37
46111;BME280;31849;55.992;37.252;2022-11-23T09:08:59;98191.34;;;2.41;68.32
46111;BME280;31849;55.992;37.252;2022-11-23T09:14:03;98196.50;;;2.45;67.92
46111;BME280;31849;55.992;37.252;2022-11-23T09:19:11;98199.16;;;2.55;67.88
46111;BME280;31849;55.992;37.252;2022-11-23T09:24:14;98169.22;;;2.57;67.85
46111;BME280;31849;55.992;37.252;2022-11-23T09:29:18;98196.91;;;2.92;67.99
46111;BME280;31849;55.992;37.252;2022-11-23T09:34:23;98196.03;;;2.87;68.20
46111;BME280;31849;55.992;37.252;2022-11-23T09:39:26;98198.59;;;2.90;67.32
46111;BME280;31849;55.992;37.252;2022-11-23T09:44:39;98204.66;;;3.01;66.48
46111;BME280;31849;55.992;37.252;2022-11-23T09:49:57;98208.91;;;2.94;66.89
46111;BME280;31849;55.992;37.252;2022-11-23T09:55:12;98205.38;;;2.83;67.87
46111;BME280;31849;55.992;37.252;2022-11-23T10:00:20;98207.13;;;2.87;68.19
46111;BME280;31849;55.992;37.252;2022-11-23T10:05:31;98208.13;;;3.02;67.95
46111;BME280;31849;55.992;37.252;2022-11-23T10:10:39;98206.50;;;3.17;66.98
46111;BME280;31849;55.992;37.252;2022-11-23T10:15:52;98212.59;;;3.32;67.70
46111;BME280;31849;55.992;37.252;2022-11-23T10:21:11;98210.19;;;3.57;65.99
46111;BME280;31849;55.992;37.252;2022-11-23T10:26:19;98212.66;;;3.43;66.18
46111;BME280;31849;55.992;37.252;2022-11-23T10:31:24;98219.44;;;3.28;65.36
46111;BME280;31849;55.992;37.252;2022-11-23T10:36:30;98226.16;;;3.12;65.46
46111;BME280;31849;55.992;37.252;2022-11-23T10:41:36;98225.13;;;2.89;66.06
46111;BME280;31849;55.992;37.252;2022-11-23T10:46:40;98215.53;;;2.69;66.59
46111;BME280;31849;55.992;37.252;2022-11-23T10:51:53;98216.38;;;2.68;66.38
46111;BME280;31849;55.992;37.252;2022-11-23T10:56:58;98218.09;;;2.66;67.15
46111;BME280;31849;55.992;37.252;2022-11-23T11:02:08;98224.06;;;2.67;66.74
46111;BME280;31849;55.992;37.252;2022-11-23T11:07:24;98221.50;;;2.67;66.95
46111;BME280;31849;55.992;37.252;2022-11-23T11:12:32;98213.78;;;2.63;67.21
46111;BME280;31849;55.992;37.252;2022-11-23T11:17:36;98223.06;;;2.52;67.54
46111;BME280;31849;55.992;37.252;2022-11-23T11:22:41;98222.16;;;2.45;67.44
46111;BME280;31849;55.992;37.252;2022-11-23T11:27:50;98221.94;;;2.27;67.57
46111;BME280;31849;55.992;37.252;2022-11-23T11:32:57;98227.06;;;2.25;68.08
46111;BME280;31849;55.992;37.252;2022-11-23T11:38:10;98233.91;;;2.23;68.05
46111;BME280;31849;55.992;37.252;2022-11-23T11:43:20;98233.03;;;2.21;67.60
46111;BME280;31849;55.992;37.252;2022-11-23T11:48:35;98252.56;;;2.10;68.27
46111;BME280;31849;55.992;37.252;2022-11-23T11:53:45;98257.75;;;2.16;67.75
46111;BME280;31849;55.992;37.252;2022-11-23T11:58:57;98257.59;;;2.02;68.11
46111;BME280;31849;55.992;37.252;2022-11-23T12:04:06;98274.69;;;2.05;68.27
46111;BME280;31849;55.992;37.252;2022-11-23T12:09:16;98276.25;;;1.92;67.71
46111;BME280;31849;55.992;37.252;2022-11-23T12:14:22;98272.66;;;1.78;68.26
46111;BME280;31849;55.992;37.252;2022-11-23T12:19:28;98288.13;;;1.85;68.44
46111;BME280;31849;55.992;37.252;2022-11-23T12:24:55;98288.97;;;1.83;68.27
46111;BME280;31849;55.992;37.252;2022-11-23T12:30:20;98292.28;;;1.77;67.95
46111;BME280;31849;55.992;37.252;2022-11-23T12:35:37;98301.63;;;1.73;68.08
46111;BME280;31849;55.992;37.252;2022-11-23T12:40:58;98314.25;;;1.61;68.10
46111;BME280;31849;55.992;37.252;2022-11-23T12:46:10;98322.78;;;1.60;68.43
46111;BME280;31849;55.992;37.252;2022-11-23T12:51:22;98341.66;;;1.65;68.32
46111;BME280;31849;55.992;37.252;2022-11-23T13:02:02;98355.09;;;1.50;68.15
46111;BME280;31849;55.992;37.252;2022-11-23T13:13:11;98353.72;;;1.17;68.25
46111;BME280;31849;55.992;37.252;2022-11-23T13:18:30;98363.03;;;1.15;69.10
46111;BME280;31849;55.992;37.252;2022-11-23T13:23:38;98367.44;;;1.22;68.81
46111;BME280;31849;55.992;37.252;2022-11-23T13:28:44;98358.00;;;1.20;68.77
46111;BME280;31849;55.992;37.252;2022-11-23T13:33:49;98364.09;;;1.27;69.34
46111;BME280;31849;55.992;37.252;2022-11-23T13:38:53;98369.94;;;1.19;69.18
46111;BME280;31849;55.992;37.252;2022-11-23T13:44:10;98379.44;;;1.25;69.04
46111;BME280;31849;55.992;37.252;2022-11-23T13:49:29;98375.13;;;1.22;68.70
46111;BME280;31849;55.992;37.252;2022-11-23T13:54:33;98386.81;;;1.08;68.51
46111;BME280;31849;55.992;37.252;2022-11-23T13:59:38;98390.72;;;0.89;68.49
46111;BME280;31849;55.992;37.252;2022-11-23T14:04:41;98387.34;;;0.90;68.52
46111;BME280;31849;55.992;37.252;2022-11-23T14:09:48;98389.06;;;0.91;68.72
46111;BME280;31849;55.992;37.252;2022-11-23T14:15:00;98408.75;;;0.94;68.45
46111;BME280;31849;55.992;37.252;2022-11-23T14:20:25;98408.53;;;0.83;68.32
46111;BME280;31849;55.992;37.252;2022-11-23T14:25:39;98415.22;;;0.76;68.86
46111;BME280;31849;55.992;37.252;2022-11-23T14:30:57;98419.31;;;0.68;68.29
46111;BME280;31849;55.992;37.252;2022-11-23T14:36:08;98406.22;;;0.52;68.64
46111;BME280;31849;55.992;37.252;2022-11-23T14:41:16;98430.13;;;0.55;68.74
46111;BME280;31849;55.992;37.252;2022-11-23T14:46:23;98427.88;;;0.68;68.91
46111;BME280;31849;55.992;37.252;2022-11-23T14:51:27;98434.47;;;0.57;68.73
46111;BME280;31849;55.992;37.252;2022-11-23T14:56:32;98436.84;;;0.49;68.52
46111;BME280;31849;55.992;37.252;2022-11-23T15:01:39;98439.50;;;0.54;68.82
46111;BME280;31849;55.992;37.252;2022-11-23T15:06:46;98444.78;;;0.62;68.79
46111;BME280;31849;55.992;37.252;2022-11-23T15:12:04;98432.06;;;0.66;68.42
46111;BME280;31849;55.992;37.252;2022-11-23T15:17:17;98443.91;;;0.60;68.34
46111;BME280;31849;55.992;37.252;2022-11-23T15:22:21;98458.19;;;0.51;68.44
46111;BME280;31849;55.992;37.252;2022-11-23T15:27:26;98472.03;;;0.60;67.64
46111;BME280;31849;55.992;37.252;2022-11-23T15:32:31;98461.72;;;0.55;68.18
46111;BME280;31849;55.992;37.252;2022-11-23T15:37:41;98484.81;;;0.60;67.89
46111;BME280;31849;55.992;37.252;2022-11-23T15:42:49;98489.81;;;0.54;67.49
46111;BME280;31849;55.992;37.252;2022-11-23T15:47:58;98498.19;;;0.46;68.03
46111;BME280;31849;55.992;37.252;2022-11-23T15:53:02;98501.19;;;0.28;67.56
46111;BME280;31849;55.992;37.252;2022-11-23T15:58:07;98493.63;;;0.33;68.19
46111;BME280;31849;55.992;37.252;2022-11-23T16:03:30;98500.25;;;0.26;67.98
46111;BME280;31849;55.992;37.252;2022-11-23T16:08:35;98517.69;;;0.43;67.89
46111;BME280;31849;55.992;37.252;2022-11-23T16:13:39;98518.34;;;0.34;67.88
46111;BME280;31849;55.992;37.252;2022-11-23T16:18:44;98517.38;;;0.29;67.75
46111;BME280;31849;55.992;37.252;2022-11-23T16:23:50;98514.72;;;0.24;67.97
46111;BME280;31849;55.992;37.252;2022-11-23T16:28:56;98527.00;;;0.39;67.48
46111;BME280;31849;55.992;37.252;2022-11-23T16:34:02;98523.47;;;0.35;67.29
46111;BME280;31849;55.992;37.252;2022-11-23T16:39:05;98534.44;;;0.28;67.63
46111;BME280;31849;55.992;37.252;2022-11-23T16:44:08;98532.31;;;0.12;67.77
46111;BME280;31849;55.992;37.252;2022-11-23T16:49:17;98536.84;;;0.24;67.46
46111;BME280;31849;55.992;37.252;2022-11-23T16:54:21;98536.47;;;0.08;67.81
46111;BME280;31849;55.992;37.252;2022-11-23T16:59:32;98552.50;;;0.01;67.61
46111;BME280;31849;55.992;37.252;2022-11-23T17:04:38;98550.63;;;-0.05;67.86
46111;BME280;31849;55.992;37.252;2022-11-23T17:09:41;98564.38;;;-0.01;67.56
46111;BME280;31849;55.992;37.252;2022-11-23T17:14:46;98569.50;;;-0.01;67.84
46111;BME280;31849;55.992;37.252;2022-11-23T17:19:52;98573.50;;;-0.11;67.96
46111;BME280;31849;55.992;37.252;2022-11-23T17:25:00;98576.13;;;-0.08;68.05
46111;BME280;31849;55.992;37.252;2022-11-23T17:30:09;98587.31;;;-0.04;68.11
46111;BME280;31849;55.992;37.252;2022-11-23T17:35:15;98593.06;;;-0.11;68.02
46111;BME280;31849;55.992;37.252;2022-11-23T17:40:20;98593.63;;;-0.23;67.76
46111;BME280;31849;55.992;37.252;2022-11-23T17:45:24;98609.22;;;-0.44;68.19
46111;BME280;31849;55.992;37.252;2022-11-23T17:50:29;98600.78;;;-0.42;67.87
46111;BME280;31849;55.992;37.252;2022-11-23T17:55:32;98617.06;;;-0.38;67.90
46111;BME280;31849;55.992;37.252;2022-11-23T18:00:37;98613.69;;;-0.37;67.87
46111;BME280;31849;55.992;37.252;2022-11-23T18:05:41;98617.97;;;-0.36;67.65
46111;BME280;31849;55.992;37.252;2022-11-23T18:10:45;98624.22;;;-0.55;67.86
46111;BME280;31849;55.992;37.252;2022-11-23T18:15:49;98618.47;;;-0.48;67.95
46111;BME280;31849;55.992;37.252;2022-11-23T18:20:54;98627.97;;;-0.44;68.04
46111;BME280;31849;55.992;37.252;2022-11-23T18:25:57;98622.03;;;-0.43;67.46
46111;BME280;31849;55.992;37.252;2022-11-23T18:31:00;98631.94;;;-0.54;67.58
46111;BME280;31849;55.992;37.252;2022-11-23T18:36:07;98629.72;;;-0.43;68.07
46111;BME280;31849;55.992;37.252;2022-11-23T18:41:11;98636.53;;;-0.42;67.71
46111;BME280;31849;55.992;37.252;2022-11-23T18:46:17;98639.56;;;-0.55;67.74
46111;BME280;31849;55.992;37.252;2022-11-23T18:51:22;98640.91;;;-0.38;67.78
46111;BME280;31849;55.992;37.252;2022-11-23T18:56:25;98641.34;;;-0.52;67.85
46111;BME280;31849;55.992;37.252;2022-11-23T19:01:29;98642.88;;;-0.59;67.70
46111;BME280;31849;55.992;37.252;2022-11-23T19:06:35;98646.19;;;-0.62;67.45
46111;BME280;31849;55.992;37.252;2022-11-23T19:11:39;98657.63;;;-0.78;67.30
46111;BME280;31849;55.992;37.252;2022-11-23T19:16:42;98665.25;;;-0.79;67.32
46111;BME280;31849;55.992;37.252;2022-11-23T19:21:47;98667.75;;;-0.81;67.11
46111;BME280;31849;55.992;37.252;2022-11-23T19:26:50;98677.63;;;-0.92;67.69
46111;BME280;31849;55.992;37.252;2022-11-23T19:31:53;98691.31;;;-0.90;67.47
46111;BME280;31849;55.992;37.252;2022-11-23T19:37:00;98690.44;;;-0.90;67.32
46111;BME280;31849;55.992;37.252;2022-11-23T19:42:04;98693.56;;;-0.99;67.48
46111;BME280;31849;55.992;37.252;2022-11-23T19:47:07;98703.94;;;-0.94;67.58
46111;BME280;31849;55.992;37.252;2022-11-23T19:52:19;98703.84;;;-0.97;67.40
46111;BME280;31849;55.992;37.252;2022-11-23T19:57:22;98705.16;;;-1.09;67.73
46111;BME280;31849;55.992;37.252;2022-11-23T20:02:26;98714.47;;;-1.11;67.49
46111;BME280;31849;55.992;37.252;2022-11-23T20:07:32;98717.22;;;-1.04;66.95
46111;BME280;31849;55.992;37.252;2022-11-23T20:12:35;98714.00;;;-1.26;67.04
46111;BME280;31849;55.992;37.252;2022-11-23T20:17:38;98723.59;;;-1.17;67.17
46111;BME280;31849;55.992;37.252;2022-11-23T20:22:43;98716.91;;;-1.14;67.00
46111;BME280;31849;55.992;37.252;2022-11-23T20:27:46;98731.84;;;-1.26;67.75
46111;BME280;31849;55.992;37.252;2022-11-23T20:32:49;98736.34;;;-1.17;67.04
46111;BME280;31849;55.992;37.252;2022-11-23T20:37:54;98733.75;;;-1.19;66.87
46111;BME280;31849;55.992;37.252;2022-11-23T20:42:58;98744.94;;;-1.15;66.95
46111;BME280;31849;55.992;37.252;2022-11-23T20:48:01;98748.00;;;-1.26;66.72
46111;BME280;31849;55.992;37.252;2022-11-23T20:53:06;98758.44;;;-1.18;66.95
46111;BME280;31849;55.992;37.252;2022-11-23T20:58:14;98761.81;;;-1.19;66.85
46111;BME280;31849;55.992;37.252;2022-11-23T21:03:18;98763.31;;;-1.26;66.52
46111;BME280;31849;55.992;37.252;2022-11-23T21:08:23;98770.44;;;-1.15;66.26
46111;BME280;31849;55.992;37.252;2022-11-23T21:13:35;98771.72;;;-1.28;66.17
46111;BME280;31849;55.992;37.252;2022-11-23T21:18:55;98788.66;;;-1.30;66.11
46111;BME280;31849;55.992;37.252;2022-11-23T21:24:00;98790.84;;;-1.41;66.06
46111;BME280;31849;55.992;37.252;2022-11-23T21:29:03;98792.47;;;-1.43;65.68
46111;BME280;31849;55.992;37.252;2022-11-23T21:34:16;98786.50;;;-1.44;65.52
46111;BME280;31849;55.992;37.252;2022-11-23T21:39:21;98794.09;;;-1.45;65.89
46111;BME280;31849;55.992;37.252;2022-11-23T21:44:25;98804.09;;;-1.51;65.70
46111;BME280;31849;55.992;37.252;2022-11-23T21:49:28;98806.75;;;-1.48;65.45
46111;BME280;31849;55.992;37.252;2022-11-23T21:54:33;98807.13;;;-1.37;65.74
46111;BME280;31849;55.992;37.252;2022-11-23T21:59:37;98804.56;;;-1.37;65.55
46111;BME280;31849;55.992;37.252;2022-11-23T22:04:40;98815.66;;;-1.35;65.17
46111;BME280;31849;55.992;37.252;2022-11-23T22:09:45;98820.94;;;-1.31;65.20
46111;BME280;31849;55.992;37.252;2022-11-23T22:14:48;98830.00;;;-1.39;64.97
46111;BME280;31849;55.992;37.252;2022-11-23T22:19:51;98830.59;;;-1.46;65.16
46111;BME280;31849;55.992;37.252;2022-11-23T22:24:56;98831.50;;;-1.44;64.92
46111;BME280;31849;55.992;37.252;2022-11-23T22:29:59;98825.72;;;-1.40;65.20
46111;BME280;31849;55.992;37.252;2022-11-23T22:35:05;98834.34;;;-1.36;64.92
46111;BME280;31849;55.992;37.252;2022-11-23T22:40:11;98833.31;;;-1.42;65.22
46111;BME280;31849;55.992;37.252;2022-11-23T22:45:14;98830.66;;;-1.45;64.50
46111;BME280;31849;55.992;37.252;2022-11-23T22:50:18;98839.00;;;-1.49;64.53
46111;BME280;31849;55.992;37.252;2022-11-23T22:55:22;98845.22;;;-1.42;64.57
46111;BME280;31849;55.992;37.252;2022-11-23T23:00:26;98857.50;;;-1.54;64.77
46111;BME280;31849;55.992;37.252;2022-11-23T23:05:29;98853.97;;;-1.58;64.51
46111;BME280;31849;55.992;37.252;2022-11-23T23:10:34;98847.88;;;-1.63;64.45
46111;BME280;31849;55.992;37.252;2022-11-23T23:15:37;98852.19;;;-1.61;63.95
46111;BME280;31849;55.992;37.252;2022-11-23T23:20:41;98860.91;;;-1.78;64.23
46111;BME280;31849;55.992;37.252;2022-11-23T23:25:45;98866.00;;;-1.78;64.32
46111;BME280;31849;55.992;37.252;2022-11-23T23:30:48;98870.81;;;-1.86;64.35
46111;BME280;31849;55.992;37.252;2022-11-23T23:35:52;98872.66;;;-1.82;64.27
46111;BME280;31849;55.992;37.252;2022-11-23T23:40:56;98873.59;;;-1.80;64.20
46111;BME280;31849;55.992;37.252;2022-11-23T23:46:00;98865.47;;;-1.92;63.43
46111;BME280;31849;55.992;37.252;2022-11-23T23:51:04;98867.06;;;-1.96;64.01
46111;BME280;31849;55.992;37.252;2022-11-23T23:56:12;98876.41;;;-1.95;63.98
